sensor_id;sensor_type;location;lat;lon;timestamp;P1;durP1;ratioP1;P2;durP2;ratioP2
63555;SDS011;49700;48.072;7.800;2023-08-01T00:02:09;3.10;;;2.40;;
63555;SDS011;49700;48.072;7.800;2023-08-01T00:04:35;6.40;;;2.80;;
63555;SDS011;49700;48.072;7.800;2023-08-01T00:07:01;3.50;;;2.60;;
63555;SDS011;49700;48.072;7.800;2023-08-01T00:09:26;6.50;;;3.37;;
63555;SDS011;49700;48.072;7.800;2023-08-01T00:11:52;5.63;;;3.30;;
63555;SDS011;49700;48.072;7.800;2023-08-01T00:14:17;4.90;;;3.50;;
63555;SDS011;49700;48.072;7.800;2023-08-01T00:16:45;3.97;;;3.07;;
63555;SDS011;49700;48.072;7.800;2023-08-01T00:19:10;3.50;;;3.20;;
63555;SDS011;49700;48.072;7.800;2023-08-01T00:21:37;8.40;;;3.47;;
63555;SDS011;49700;48.072;7.800;2023-08-01T00:24:03;5.83;;;2.93;;
63555;SDS011;49700;48.072;7.800;2023-08-01T00:26:28;4.07;;;2.73;;
63555;SDS011;49700;48.072;7.800;2023-08-01T00:28:54;3.70;;;3.10;;
63555;SDS011;49700;48.072;7.800;2023-08-01T00:31:19;4.60;;;3.80;;
63555;SDS011;49700;48.072;7.800;2023-08-01T00:33:44;4.37;;;2.87;;
63555;SDS011;49700;48.072;7.800;2023-08-01T00:36:10;4.67;;;2.67;;
63555;SDS011;49700;48.072;7.800;2023-08-01T00:38:36;4.83;;;3.17;;
63555;SDS011;49700;48.072;7.800;2023-08-01T00:41:02;3.93;;;2.90;;
63555;SDS011;49700;48.072;7.800;2023-08-01T00:43:28;3.80;;;2.47;;
63555;SDS011;49700;48.072;7.800;2023-08-01T00:45:54;4.93;;;3.53;;
63555;SDS011;49700;48.072;7.800;2023-08-01T00:48:24;3.43;;;2.77;;
63555;SDS011;49700;48.072;7.800;2023-08-01T00:50:49;3.00;;;2.33;;
63555;SDS011;49700;48.072;7.800;2023-08-01T00:53:15;4.50;;;3.57;;
63555;SDS011;49700;48.072;7.800;2023-08-01T00:55:42;2.90;;;2.60;;
63555;SDS011;49700;48.072;7.800;2023-08-01T00:58:08;3.47;;;3.00;;
63555;SDS011;49700;48.072;7.800;2023-08-01T01:00:34;5.30;;;2.80;;
63555;SDS011;49700;48.072;7.800;2023-08-01T01:03:00;4.20;;;3.30;;
63555;SDS011;49700;48.072;7.800;2023-08-01T01:05:26;4.20;;;3.07;;
63555;SDS011;49700;48.072;7.800;2023-08-01T01:07:56;5.33;;;2.93;;
63555;SDS011;49700;48.072;7.800;2023-08-01T01:10:22;6.73;;;2.50;;
63555;SDS011;49700;48.072;7.800;2023-08-01T01:12:47;5.80;;;2.70;;
63555;SDS011;49700;48.072;7.800;2023-08-01T01:15:15;4.90;;;2.57;;
63555;SDS011;49700;48.072;7.800;2023-08-01T01:17:40;9.57;;;3.00;;
63555;SDS011;49700;48.072;7.800;2023-08-01T01:20:06;4.40;;;3.57;;
63555;SDS011;49700;48.072;7.800;2023-08-01T01:22:31;5.07;;;2.47;;
63555;SDS011;49700;48.072;7.800;2023-08-01T01:24:58;6.23;;;3.30;;
63555;SDS011;49700;48.072;7.800;2023-08-01T01:27:26;6.23;;;2.30;;
63555;SDS011;49700;48.072;7.800;2023-08-01T01:29:53;3.30;;;2.10;;
63555;SDS011;49700;48.072;7.800;2023-08-01T01:32:20;4.50;;;2.50;;
63555;SDS011;49700;48.072;7.800;2023-08-01T01:34:45;14.40;;;5.60;;
63555;SDS011;49700;48.072;7.800;2023-08-01T01:37:11;7.43;;;5.17;;
63555;SDS011;49700;48.072;7.800;2023-08-01T01:39:36;3.33;;;1.90;;
63555;SDS011;49700;48.072;7.800;2023-08-01T01:42:02;4.10;;;2.77;;
63555;SDS011;49700;48.072;7.800;2023-08-01T01:44:27;3.77;;;2.50;;
63555;SDS011;49700;48.072;7.800;2023-08-01T01:46:53;3.57;;;2.53;;
63555;SDS011;49700;48.072;7.800;2023-08-01T01:49:19;8.90;;;2.73;;
63555;SDS011;49700;48.072;7.800;2023-08-01T01:51:44;2.90;;;2.53;;
63555;SDS011;49700;48.072;7.800;2023-08-01T01:54:09;2.87;;;2.20;;
63555;SDS011;49700;48.072;7.800;2023-08-01T01:56:35;4.60;;;2.97;;
63555;SDS011;49700;48.072;7.800;2023-08-01T01:59:02;3.00;;;2.27;;
63555;SDS011;49700;48.072;7.800;2023-08-01T02:01:27;6.73;;;2.83;;
63555;SDS011;49700;48.072;7.800;2023-08-01T02:03:53;3.93;;;2.93;;
63555;SDS011;49700;48.072;7.800;2023-08-01T02:06:18;4.07;;;2.63;;
63555;SDS011;49700;48.072;7.800;2023-08-01T02:08:43;3.60;;;2.87;;
63555;SDS011;49700;48.072;7.800;2023-08-01T02:11:10;3.10;;;2.13;;
63555;SDS011;49700;48.072;7.800;2023-08-01T02:13:35;4.20;;;3.30;;
63555;SDS011;49700;48.072;7.800;2023-08-01T02:16:01;9.13;;;2.93;;
63555;SDS011;49700;48.072;7.800;2023-08-01T02:18:26;4.17;;;3.00;;
63555;SDS011;49700;48.072;7.800;2023-08-01T02:20:52;4.20;;;3.20;;
63555;SDS011;49700;48.072;7.800;2023-08-01T02:23:18;3.90;;;2.17;;
63555;SDS011;49700;48.072;7.800;2023-08-01T02:25:43;4.27;;;2.73;;
63555;SDS011;49700;48.072;7.800;2023-08-01T02:28:09;3.83;;;2.40;;
63555;SDS011;49700;48.072;7.800;2023-08-01T02:30:35;5.40;;;2.93;;
63555;SDS011;49700;48.072;7.800;2023-08-01T02:33:01;3.43;;;2.50;;
63555;SDS011;49700;48.072;7.800;2023-08-01T02:35:27;5.20;;;2.73;;
63555;SDS011;49700;48.072;7.800;2023-08-01T02:37:53;3.30;;;2.27;;
63555;SDS011;49700;48.072;7.800;2023-08-01T02:40:19;3.97;;;2.53;;
63555;SDS011;49700;48.072;7.800;2023-08-01T02:42:44;4.20;;;2.30;;
63555;SDS011;49700;48.072;7.800;2023-08-01T02:45:10;2.70;;;2.20;;
63555;SDS011;49700;48.072;7.800;2023-08-01T02:47:35;2.60;;;1.80;;
63555;SDS011;49700;48.072;7.800;2023-08-01T02:50:01;8.43;;;2.97;;
63555;SDS011;49700;48.072;7.800;2023-08-01T02:52:26;4.40;;;2.27;;
63555;SDS011;49700;48.072;7.800;2023-08-01T02:54:51;3.43;;;3.10;;
63555;SDS011;49700;48.072;7.800;2023-08-01T02:57:17;2.40;;;2.20;;
63555;SDS011;49700;48.072;7.800;2023-08-01T02:59:42;3.67;;;2.87;;
63555;SDS011;49700;48.072;7.800;2023-08-01T03:02:08;4.10;;;2.70;;
63555;SDS011;49700;48.072;7.800;2023-08-01T03:04:33;3.47;;;2.23;;
63555;SDS011;49700;48.072;7.800;2023-08-01T03:06:58;4.80;;;3.13;;
63555;SDS011;49700;48.072;7.800;2023-08-01T03:09:24;3.20;;;2.53;;
63555;SDS011;49700;48.072;7.800;2023-08-01T03:11:49;3.30;;;2.63;;
63555;SDS011;49700;48.072;7.800;2023-08-01T03:14:15;5.13;;;2.30;;
63555;SDS011;49700;48.072;7.800;2023-08-01T03:16:41;3.00;;;2.70;;
63555;SDS011;49700;48.072;7.800;2023-08-01T03:19:07;3.53;;;3.03;;
63555;SDS011;49700;48.072;7.800;2023-08-01T03:21:33;4.80;;;2.07;;
63555;SDS011;49700;48.072;7.800;2023-08-01T03:23:59;4.60;;;2.60;;
63555;SDS011;49700;48.072;7.800;2023-08-01T03:26:26;4.20;;;3.00;;
63555;SDS011;49700;48.072;7.800;2023-08-01T03:28:55;3.07;;;2.30;;
63555;SDS011;49700;48.072;7.800;2023-08-01T03:31:22;3.97;;;3.10;;
63555;SDS011;49700;48.072;7.800;2023-08-01T03:33:47;4.50;;;2.63;;
63555;SDS011;49700;48.072;7.800;2023-08-01T03:36:13;2.37;;;1.90;;
63555;SDS011;49700;48.072;7.800;2023-08-01T03:38:38;4.50;;;2.97;;
63555;SDS011;49700;48.072;7.800;2023-08-01T03:41:16;3.57;;;2.90;;
63555;SDS011;49700;48.072;7.800;2023-08-01T03:43:41;2.77;;;2.00;;
63555;SDS011;49700;48.072;7.800;2023-08-01T03:46:07;3.73;;;2.17;;
63555;SDS011;49700;48.072;7.800;2023-08-01T03:48:32;3.57;;;2.03;;
63555;SDS011;49700;48.072;7.800;2023-08-01T03:50:58;3.13;;;2.50;;
63555;SDS011;49700;48.072;7.800;2023-08-01T03:53:25;3.60;;;2.43;;
63555;SDS011;49700;48.072;7.800;2023-08-01T03:55:51;4.10;;;2.63;;
63555;SDS011;49700;48.072;7.800;2023-08-01T03:58:16;6.13;;;3.47;;
63555;SDS011;49700;48.072;7.800;2023-08-01T04:00:42;4.73;;;3.03;;
63555;SDS011;49700;48.072;7.800;2023-08-01T04:03:07;5.80;;;2.97;;
63555;SDS011;49700;48.072;7.800;2023-08-01T04:05:33;4.27;;;2.53;;
63555;SDS011;49700;48.072;7.800;2023-08-01T04:07:58;4.50;;;2.60;;
63555;SDS011;49700;48.072;7.800;2023-08-01T04:10:24;4.57;;;2.50;;
63555;SDS011;49700;48.072;7.800;2023-08-01T04:12:49;3.27;;;2.63;;
63555;SDS011;49700;48.072;7.800;2023-08-01T04:15:15;4.03;;;2.47;;
63555;SDS011;49700;48.072;7.800;2023-08-01T04:17:40;5.70;;;2.40;;
63555;SDS011;49700;48.072;7.800;2023-08-01T04:20:06;8.63;;;4.20;;
63555;SDS011;49700;48.072;7.800;2023-08-01T04:22:31;4.20;;;2.40;;
63555;SDS011;49700;48.072;7.800;2023-08-01T04:24:57;3.77;;;2.40;;
63555;SDS011;49700;48.072;7.800;2023-08-01T04:27:22;8.57;;;2.90;;
63555;SDS011;49700;48.072;7.800;2023-08-01T04:29:48;4.73;;;3.00;;
63555;SDS011;49700;48.072;7.800;2023-08-01T04:32:13;3.60;;;2.53;;
63555;SDS011;49700;48.072;7.800;2023-08-01T04:34:40;9.47;;;3.07;;
63555;SDS011;49700;48.072;7.800;2023-08-01T04:37:06;3.83;;;3.33;;
63555;SDS011;49700;48.072;7.800;2023-08-01T04:39:31;8.33;;;3.07;;
63555;SDS011;49700;48.072;7.800;2023-08-01T04:41:57;5.83;;;2.97;;
63555;SDS011;49700;48.072;7.800;2023-08-01T04:44:22;6.80;;;3.60;;
63555;SDS011;49700;48.072;7.800;2023-08-01T04:46:48;6.37;;;3.13;;
63555;SDS011;49700;48.072;7.800;2023-08-01T04:49:14;3.30;;;2.50;;
63555;SDS011;49700;48.072;7.800;2023-08-01T04:51:39;4.03;;;2.53;;
63555;SDS011;49700;48.072;7.800;2023-08-01T04:54:04;3.80;;;2.87;;
63555;SDS011;49700;48.072;7.800;2023-08-01T04:56:30;4.13;;;3.00;;
63555;SDS011;49700;48.072;7.800;2023-08-01T04:58:55;6.20;;;2.97;;
63555;SDS011;49700;48.072;7.800;2023-08-01T05:01:20;5.33;;;3.40;;
63555;SDS011;49700;48.072;7.800;2023-08-01T05:03:46;6.40;;;3.10;;
63555;SDS011;49700;48.072;7.800;2023-08-01T05:06:11;4.43;;;2.60;;
63555;SDS011;49700;48.072;7.800;2023-08-01T05:08:37;3.63;;;2.80;;
63555;SDS011;49700;48.072;7.800;2023-08-01T05:11:02;5.60;;;3.87;;
63555;SDS011;49700;48.072;7.800;2023-08-01T05:13:27;6.30;;;3.17;;
63555;SDS011;49700;48.072;7.800;2023-08-01T05:15:53;8.50;;;4.17;;
63555;SDS011;49700;48.072;7.800;2023-08-01T05:18:18;6.90;;;3.33;;
63555;SDS011;49700;48.072;7.800;2023-08-01T05:20:44;14.03;;;4.70;;
63555;SDS011;49700;48.072;7.800;2023-08-01T05:23:09;3.80;;;3.30;;
63555;SDS011;49700;48.072;7.800;2023-08-01T05:25:35;10.63;;;5.20;;
63555;SDS011;49700;48.072;7.800;2023-08-01T05:28:00;7.37;;;3.60;;
63555;SDS011;49700;48.072;7.800;2023-08-01T05:30:26;7.70;;;3.23;;
63555;SDS011;49700;48.072;7.800;2023-08-01T05:32:51;7.03;;;3.40;;
63555;SDS011;49700;48.072;7.800;2023-08-01T05:35:18;4.90;;;3.40;;
63555;SDS011;49700;48.072;7.800;2023-08-01T05:37:44;5.43;;;3.30;;
63555;SDS011;49700;48.072;7.800;2023-08-01T05:40:09;6.40;;;3.67;;
63555;SDS011;49700;48.072;7.800;2023-08-01T05:42:35;10.40;;;4.10;;
63555;SDS011;49700;48.072;7.800;2023-08-01T05:45:01;5.60;;;3.87;;
63555;SDS011;49700;48.072;7.800;2023-08-01T05:47:26;6.60;;;5.73;;
63555;SDS011;49700;48.072;7.800;2023-08-01T05:49:52;5.40;;;4.20;;
63555;SDS011;49700;48.072;7.800;2023-08-01T05:52:17;5.87;;;3.20;;
63555;SDS011;49700;48.072;7.800;2023-08-01T05:54:43;3.70;;;2.90;;
63555;SDS011;49700;48.072;7.800;2023-08-01T05:57:08;7.10;;;4.30;;
63555;SDS011;49700;48.072;7.800;2023-08-01T05:59:34;7.67;;;3.43;;
63555;SDS011;49700;48.072;7.800;2023-08-01T06:01:59;4.93;;;2.63;;
63555;SDS011;49700;48.072;7.800;2023-08-01T06:04:25;7.07;;;3.70;;
63555;SDS011;49700;48.072;7.800;2023-08-01T06:06:50;5.40;;;3.60;;
63555;SDS011;49700;48.072;7.800;2023-08-01T06:09:15;4.47;;;2.80;;
63555;SDS011;49700;48.072;7.800;2023-08-01T06:11:41;4.10;;;2.77;;
63555;SDS011;49700;48.072;7.800;2023-08-01T06:14:06;4.10;;;2.80;;
63555;SDS011;49700;48.072;7.800;2023-08-01T06:16:32;4.73;;;3.13;;
63555;SDS011;49700;48.072;7.800;2023-08-01T06:18:58;3.97;;;3.40;;
63555;SDS011;49700;48.072;7.800;2023-08-01T06:21:24;4.63;;;3.60;;
63555;SDS011;49700;48.072;7.800;2023-08-01T06:23:49;5.27;;;3.10;;
63555;SDS011;49700;48.072;7.800;2023-08-01T06:26:15;6.30;;;2.77;;
63555;SDS011;49700;48.072;7.800;2023-08-01T06:28:40;7.17;;;3.77;;
63555;SDS011;49700;48.072;7.800;2023-08-01T06:31:06;7.13;;;3.73;;
63555;SDS011;49700;48.072;7.800;2023-08-01T06:33:32;5.43;;;3.30;;
63555;SDS011;49700;48.072;7.800;2023-08-01T06:35:57;4.17;;;2.90;;
63555;SDS011;49700;48.072;7.800;2023-08-01T06:38:22;4.13;;;3.00;;
63555;SDS011;49700;48.072;7.800;2023-08-01T06:40:48;4.70;;;2.57;;
63555;SDS011;49700;48.072;7.800;2023-08-01T06:43:13;6.00;;;3.17;;
63555;SDS011;49700;48.072;7.800;2023-08-01T06:45:39;4.43;;;3.10;;
63555;SDS011;49700;48.072;7.800;2023-08-01T06:48:04;4.50;;;2.80;;
63555;SDS011;49700;48.072;7.800;2023-08-01T06:50:30;6.90;;;3.10;;
63555;SDS011;49700;48.072;7.800;2023-08-01T06:52:55;8.30;;;3.40;;
63555;SDS011;49700;48.072;7.800;2023-08-01T06:55:21;3.30;;;2.40;;
63555;SDS011;49700;48.072;7.800;2023-08-01T07:00:30;3.37;;;2.30;;
63555;SDS011;49700;48.072;7.800;2023-08-01T07:02:56;10.50;;;4.50;;
63555;SDS011;49700;48.072;7.800;2023-08-01T07:05:22;7.20;;;3.08;;
63555;SDS011;49700;48.072;7.800;2023-08-01T07:07:48;4.77;;;2.77;;
63555;SDS011;49700;48.072;7.800;2023-08-01T07:10:14;5.17;;;3.17;;
63555;SDS011;49700;48.072;7.800;2023-08-01T07:12:39;4.27;;;2.97;;
63555;SDS011;49700;48.072;7.800;2023-08-01T07:15:05;8.60;;;3.23;;
63555;SDS011;49700;48.072;7.800;2023-08-01T07:17:31;7.03;;;3.50;;
63555;SDS011;49700;48.072;7.800;2023-08-01T07:19:57;2.80;;;2.57;;
63555;SDS011;49700;48.072;7.800;2023-08-01T07:22:22;8.60;;;4.77;;
63555;SDS011;49700;48.072;7.800;2023-08-01T07:24:52;4.40;;;3.63;;
63555;SDS011;49700;48.072;7.800;2023-08-01T07:27:18;6.00;;;4.10;;
63555;SDS011;49700;48.072;7.800;2023-08-01T07:29:46;11.00;;;4.37;;
63555;SDS011;49700;48.072;7.800;2023-08-01T07:32:11;3.70;;;3.20;;
63555;SDS011;49700;48.072;7.800;2023-08-01T07:34:37;7.17;;;3.63;;
63555;SDS011;49700;48.072;7.800;2023-08-01T07:37:02;8.30;;;4.30;;
63555;SDS011;49700;48.072;7.800;2023-08-01T07:39:28;6.43;;;4.87;;
63555;SDS011;49700;48.072;7.800;2023-08-01T07:41:54;6.40;;;4.67;;
63555;SDS011;49700;48.072;7.800;2023-08-01T07:44:20;6.37;;;4.00;;
63555;SDS011;49700;48.072;7.800;2023-08-01T07:46:46;7.60;;;4.00;;
63555;SDS011;49700;48.072;7.800;2023-08-01T07:49:11;7.90;;;4.43;;
63555;SDS011;49700;48.072;7.800;2023-08-01T07:51:36;6.23;;;4.80;;
63555;SDS011;49700;48.072;7.800;2023-08-01T07:54:02;5.07;;;3.10;;
63555;SDS011;49700;48.072;7.800;2023-08-01T07:56:27;6.23;;;3.23;;
63555;SDS011;49700;48.072;7.800;2023-08-01T07:58:53;3.27;;;2.77;;
63555;SDS011;49700;48.072;7.800;2023-08-01T08:01:18;5.90;;;3.50;;
63555;SDS011;49700;48.072;7.800;2023-08-01T08:03:43;6.40;;;3.10;;
63555;SDS011;49700;48.072;7.800;2023-08-01T08:06:09;6.17;;;3.00;;
63555;SDS011;49700;48.072;7.800;2023-08-01T08:08:34;4.87;;;2.53;;
63555;SDS011;49700;48.072;7.800;2023-08-01T08:11:01;3.10;;;2.20;;
63555;SDS011;49700;48.072;7.800;2023-08-01T08:13:30;4.50;;;2.53;;
63555;SDS011;49700;48.072;7.800;2023-08-01T08:15:55;5.73;;;2.77;;
63555;SDS011;49700;48.072;7.800;2023-08-01T08:18:24;2.60;;;2.13;;
63555;SDS011;49700;48.072;7.800;2023-08-01T08:20:50;4.33;;;3.27;;
63555;SDS011;49700;48.072;7.800;2023-08-01T08:23:15;3.57;;;2.27;;
63555;SDS011;49700;48.072;7.800;2023-08-01T08:25:41;3.83;;;2.20;;
63555;SDS011;49700;48.072;7.800;2023-08-01T08:28:07;3.67;;;2.60;;
63555;SDS011;49700;48.072;7.800;2023-08-01T08:30:33;4.37;;;3.40;;
63555;SDS011;49700;48.072;7.800;2023-08-01T08:33:00;5.53;;;3.37;;
63555;SDS011;49700;48.072;7.800;2023-08-01T08:35:29;4.85;;;3.38;;
63555;SDS011;49700;48.072;7.800;2023-08-01T08:37:59;6.60;;;4.23;;
63555;SDS011;49700;48.072;7.800;2023-08-01T08:40:25;6.50;;;4.47;;
63555;SDS011;49700;48.072;7.800;2023-08-01T08:42:52;6.57;;;4.43;;
63555;SDS011;49700;48.072;7.800;2023-08-01T08:45:18;7.33;;;5.03;;
63555;SDS011;49700;48.072;7.800;2023-08-01T08:47:46;3.23;;;2.93;;
63555;SDS011;49700;48.072;7.800;2023-08-01T08:50:18;5.90;;;3.10;;
63555;SDS011;49700;48.072;7.800;2023-08-01T08:52:45;7.13;;;3.13;;
63555;SDS011;49700;48.072;7.800;2023-08-01T08:55:11;6.10;;;3.47;;
63555;SDS011;49700;48.072;7.800;2023-08-01T08:57:36;3.60;;;2.47;;
63555;SDS011;49700;48.072;7.800;2023-08-01T09:00:04;5.50;;;3.73;;
63555;SDS011;49700;48.072;7.800;2023-08-01T09:02:30;5.27;;;3.97;;
63555;SDS011;49700;48.072;7.800;2023-08-01T09:04:57;3.87;;;2.90;;
63555;SDS011;49700;48.072;7.800;2023-08-01T09:07:23;3.53;;;2.17;;
63555;SDS011;49700;48.072;7.800;2023-08-01T09:09:54;5.20;;;4.10;;
63555;SDS011;49700;48.072;7.800;2023-08-01T09:12:20;4.27;;;3.27;;
63555;SDS011;49700;48.072;7.800;2023-08-01T09:14:50;2.80;;;2.33;;
63555;SDS011;49700;48.072;7.800;2023-08-01T09:17:16;3.33;;;2.10;;
63555;SDS011;49700;48.072;7.800;2023-08-01T09:19:43;2.60;;;2.00;;
63555;SDS011;49700;48.072;7.800;2023-08-01T09:22:12;3.50;;;2.03;;
63555;SDS011;49700;48.072;7.800;2023-08-01T09:24:38;2.40;;;1.80;;
63555;SDS011;49700;48.072;7.800;2023-08-01T09:27:04;3.17;;;2.17;;
63555;SDS011;49700;48.072;7.800;2023-08-01T09:29:30;2.57;;;1.93;;
63555;SDS011;49700;48.072;7.800;2023-08-01T09:31:57;2.90;;;1.93;;
63555;SDS011;49700;48.072;7.800;2023-08-01T09:34:24;3.40;;;2.50;;
63555;SDS011;49700;48.072;7.800;2023-08-01T09:36:51;3.20;;;1.70;;
63555;SDS011;49700;48.072;7.800;2023-08-01T09:39:22;3.50;;;2.10;;
63555;SDS011;49700;48.072;7.800;2023-08-01T09:41:57;3.50;;;1.97;;
63555;SDS011;49700;48.072;7.800;2023-08-01T09:44:27;4.50;;;2.50;;
63555;SDS011;49700;48.072;7.800;2023-08-01T09:47:00;4.10;;;1.93;;
63555;SDS011;49700;48.072;7.800;2023-08-01T09:49:27;4.63;;;2.37;;
63555;SDS011;49700;48.072;7.800;2023-08-01T09:51:53;5.93;;;2.57;;
63555;SDS011;49700;48.072;7.800;2023-08-01T09:54:19;2.37;;;1.60;;
63555;SDS011;49700;48.072;7.800;2023-08-01T09:56:46;2.43;;;2.00;;
63555;SDS011;49700;48.072;7.800;2023-08-01T09:59:22;2.60;;;2.17;;
63555;SDS011;49700;48.072;7.800;2023-08-01T10:01:49;4.60;;;2.47;;
63555;SDS011;49700;48.072;7.800;2023-08-01T10:04:26;3.70;;;2.30;;
63555;SDS011;49700;48.072;7.800;2023-08-01T10:06:57;4.93;;;2.57;;
63555;SDS011;49700;48.072;7.800;2023-08-01T10:09:24;3.73;;;2.53;;
63555;SDS011;49700;48.072;7.800;2023-08-01T10:11:57;2.23;;;1.57;;
63555;SDS011;49700;48.072;7.800;2023-08-01T10:14:23;4.10;;;1.93;;
63555;SDS011;49700;48.072;7.800;2023-08-01T10:16:50;3.20;;;2.30;;
63555;SDS011;49700;48.072;7.800;2023-08-01T10:19:16;3.80;;;1.70;;
63555;SDS011;49700;48.072;7.800;2023-08-01T10:21:43;3.63;;;2.43;;
63555;SDS011;49700;48.072;7.800;2023-08-01T10:24:09;2.63;;;2.00;;
63555;SDS011;49700;48.072;7.800;2023-08-01T10:26:37;3.43;;;2.20;;
63555;SDS011;49700;48.072;7.800;2023-08-01T10:29:02;2.70;;;1.73;;
63555;SDS011;49700;48.072;7.800;2023-08-01T10:31:28;3.77;;;1.50;;
63555;SDS011;49700;48.072;7.800;2023-08-01T10:34:02;2.07;;;1.87;;
63555;SDS011;49700;48.072;7.800;2023-08-01T10:36:30;3.40;;;2.13;;
63555;SDS011;49700;48.072;7.800;2023-08-01T10:38:57;2.10;;;1.90;;
63555;SDS011;49700;48.072;7.800;2023-08-01T10:41:30;2.90;;;1.67;;
63555;SDS011;49700;48.072;7.800;2023-08-01T10:46:44;2.57;;;1.60;;
63555;SDS011;49700;48.072;7.800;2023-08-01T10:49:16;1.97;;;1.60;;
63555;SDS011;49700;48.072;7.800;2023-08-01T10:51:42;4.13;;;1.77;;
63555;SDS011;49700;48.072;7.800;2023-08-01T10:54:18;2.10;;;1.83;;
63555;SDS011;49700;48.072;7.800;2023-08-01T10:56:48;3.67;;;1.90;;
63555;SDS011;49700;48.072;7.800;2023-08-01T10:59:15;2.53;;;1.53;;
63555;SDS011;49700;48.072;7.800;2023-08-01T11:01:48;2.13;;;1.63;;
63555;SDS011;49700;48.072;7.800;2023-08-01T11:04:18;2.87;;;1.60;;
63555;SDS011;49700;48.072;7.800;2023-08-01T11:06:53;1.67;;;1.48;;
63555;SDS011;49700;48.072;7.800;2023-08-01T11:09:26;1.73;;;1.23;;
63555;SDS011;49700;48.072;7.800;2023-08-01T11:11:53;2.27;;;1.30;;
63555;SDS011;49700;48.072;7.800;2023-08-01T11:14:20;1.33;;;1.23;;
63555;SDS011;49700;48.072;7.800;2023-08-01T11:16:47;2.90;;;1.50;;
63555;SDS011;49700;48.072;7.800;2023-08-01T11:19:21;1.70;;;1.43;;
63555;SDS011;49700;48.072;7.800;2023-08-01T11:21:48;2.90;;;1.43;;
63555;SDS011;49700;48.072;7.800;2023-08-01T11:24:14;2.50;;;1.40;;
63555;SDS011;49700;48.072;7.800;2023-08-01T11:26:40;2.33;;;1.50;;
63555;SDS011;49700;48.072;7.800;2023-08-01T11:29:07;1.43;;;1.20;;
63555;SDS011;49700;48.072;7.800;2023-08-01T11:31:32;2.43;;;1.70;;
63555;SDS011;49700;48.072;7.800;2023-08-01T11:33:58;3.77;;;1.40;;
63555;SDS011;49700;48.072;7.800;2023-08-01T11:36:27;2.40;;;1.30;;
63555;SDS011;49700;48.072;7.800;2023-08-01T11:38:57;2.27;;;1.13;;
63555;SDS011;49700;48.072;7.800;2023-08-01T11:41:24;2.00;;;1.00;;
63555;SDS011;49700;48.072;7.800;2023-08-01T11:43:52;1.87;;;0.90;;
63555;SDS011;49700;48.072;7.800;2023-08-01T11:46:19;1.40;;;0.90;;
63555;SDS011;49700;48.072;7.800;2023-08-01T11:48:45;3.00;;;1.00;;
63555;SDS011;49700;48.072;7.800;2023-08-01T11:51:17;1.23;;;0.80;;
63555;SDS011;49700;48.072;7.800;2023-08-01T11:53:43;1.43;;;0.90;;
63555;SDS011;49700;48.072;7.800;2023-08-01T11:56:19;1.10;;;0.90;;
63555;SDS011;49700;48.072;7.800;2023-08-01T11:58:45;1.00;;;0.90;;
63555;SDS011;49700;48.072;7.800;2023-08-01T12:01:11;1.23;;;0.90;;
63555;SDS011;49700;48.072;7.800;2023-08-01T12:03:48;0.80;;;0.60;;
63555;SDS011;49700;48.072;7.800;2023-08-01T12:06:22;0.90;;;0.73;;
63555;SDS011;49700;48.072;7.800;2023-08-01T12:08:50;0.90;;;0.80;;
63555;SDS011;49700;48.072;7.800;2023-08-01T12:11:19;0.90;;;0.70;;
63555;SDS011;49700;48.072;7.800;2023-08-01T12:13:59;0.77;;;0.70;;
63555;SDS011;49700;48.072;7.800;2023-08-01T12:16:45;2.07;;;0.97;;
63555;SDS011;49700;48.072;7.800;2023-08-01T12:19:16;1.03;;;0.80;;
63555;SDS011;49700;48.072;7.800;2023-08-01T12:21:43;1.27;;;0.60;;
63555;SDS011;49700;48.072;7.800;2023-08-01T12:24:09;1.73;;;0.80;;
63555;SDS011;49700;48.072;7.800;2023-08-01T12:26:35;0.87;;;0.77;;
63555;SDS011;49700;48.072;7.800;2023-08-01T12:29:00;1.20;;;0.70;;
63555;SDS011;49700;48.072;7.800;2023-08-01T12:31:26;0.87;;;0.70;;
63555;SDS011;49700;48.072;7.800;2023-08-01T12:33:51;1.40;;;0.97;;
63555;SDS011;49700;48.072;7.800;2023-08-01T12:36:20;1.30;;;0.90;;
63555;SDS011;49700;48.072;7.800;2023-08-01T12:38:46;1.03;;;0.83;;
63555;SDS011;49700;48.072;7.800;2023-08-01T12:41:11;0.87;;;0.80;;
63555;SDS011;49700;48.072;7.800;2023-08-01T12:43:37;1.20;;;0.80;;
63555;SDS011;49700;48.072;7.800;2023-08-01T12:46:03;1.00;;;0.90;;
63555;SDS011;49700;48.072;7.800;2023-08-01T12:48:28;0.90;;;0.80;;
63555;SDS011;49700;48.072;7.800;2023-08-01T12:50:54;0.87;;;0.70;;
63555;SDS011;49700;48.072;7.800;2023-08-01T12:53:20;1.50;;;0.97;;
63555;SDS011;49700;48.072;7.800;2023-08-01T12:55:48;2.07;;;0.80;;
63555;SDS011;49700;48.072;7.800;2023-08-01T12:58:15;0.97;;;0.80;;
63555;SDS011;49700;48.072;7.800;2023-08-01T13:00:40;0.80;;;0.80;;
63555;SDS011;49700;48.072;7.800;2023-08-01T13:03:07;1.23;;;1.00;;
63555;SDS011;49700;48.072;7.800;2023-08-01T13:05:39;1.10;;;0.90;;
63555;SDS011;49700;48.072;7.800;2023-08-01T13:08:06;1.63;;;0.80;;
63555;SDS011;49700;48.072;7.800;2023-08-01T13:10:36;1.47;;;0.77;;
63555;SDS011;49700;48.072;7.800;2023-08-01T13:13:02;1.53;;;0.90;;
63555;SDS011;49700;48.072;7.800;2023-08-01T13:15:28;0.80;;;0.70;;
63555;SDS011;49700;48.072;7.800;2023-08-01T13:17:54;1.50;;;0.90;;
63555;SDS011;49700;48.072;7.800;2023-08-01T13:20:20;1.67;;;0.70;;
63555;SDS011;49700;48.072;7.800;2023-08-01T13:22:46;1.20;;;0.80;;
63555;SDS011;49700;48.072;7.800;2023-08-01T13:25:13;1.23;;;0.80;;
63555;SDS011;49700;48.072;7.800;2023-08-01T13:27:39;0.80;;;0.70;;
63555;SDS011;49700;48.072;7.800;2023-08-01T13:30:04;1.20;;;0.93;;
63555;SDS011;49700;48.072;7.800;2023-08-01T13:32:30;0.70;;;0.63;;
63555;SDS011;49700;48.072;7.800;2023-08-01T13:34:56;0.87;;;0.80;;
63555;SDS011;49700;48.072;7.800;2023-08-01T13:37:21;1.30;;;0.80;;
63555;SDS011;49700;48.072;7.800;2023-08-01T13:39:47;1.33;;;0.83;;
63555;SDS011;49700;48.072;7.800;2023-08-01T13:42:12;1.37;;;0.87;;
63555;SDS011;49700;48.072;7.800;2023-08-01T13:44:38;0.87;;;0.70;;
63555;SDS011;49700;48.072;7.800;2023-08-01T13:47:03;1.00;;;0.70;;
63555;SDS011;49700;48.072;7.800;2023-08-01T13:49:29;2.97;;;0.97;;
63555;SDS011;49700;48.072;7.800;2023-08-01T13:51:55;1.13;;;0.70;;
63555;SDS011;49700;48.072;7.800;2023-08-01T13:54:20;1.17;;;0.87;;
63555;SDS011;49700;48.072;7.800;2023-08-01T13:56:46;1.10;;;0.90;;
63555;SDS011;49700;48.072;7.800;2023-08-01T13:59:11;1.00;;;0.90;;
63555;SDS011;49700;48.072;7.800;2023-08-01T14:01:36;1.63;;;0.80;;
63555;SDS011;49700;48.072;7.800;2023-08-01T14:04:03;1.07;;;0.70;;
63555;SDS011;49700;48.072;7.800;2023-08-01T14:06:29;1.00;;;0.82;;
63555;SDS011;49700;48.072;7.800;2023-08-01T14:08:54;1.00;;;0.90;;
63555;SDS011;49700;48.072;7.800;2023-08-01T14:11:20;1.70;;;0.90;;
63555;SDS011;49700;48.072;7.800;2023-08-01T14:13:45;1.53;;;1.10;;
63555;SDS011;49700;48.072;7.800;2023-08-01T14:16:10;0.80;;;0.80;;
63555;SDS011;49700;48.072;7.800;2023-08-01T14:18:36;0.70;;;0.70;;
63555;SDS011;49700;48.072;7.800;2023-08-01T14:21:01;2.43;;;1.00;;
63555;SDS011;49700;48.072;7.800;2023-08-01T14:23:27;0.97;;;0.80;;
63555;SDS011;49700;48.072;7.800;2023-08-01T14:25:52;1.50;;;0.80;;
63555;SDS011;49700;48.072;7.800;2023-08-01T14:28:18;0.97;;;0.87;;
63555;SDS011;49700;48.072;7.800;2023-08-01T14:30:43;1.10;;;0.90;;
63555;SDS011;49700;48.072;7.800;2023-08-01T14:33:09;1.00;;;0.80;;
63555;SDS011;49700;48.072;7.800;2023-08-01T14:35:35;1.00;;;0.90;;
63555;SDS011;49700;48.072;7.800;2023-08-01T14:38:01;3.03;;;1.00;;
63555;SDS011;49700;48.072;7.800;2023-08-01T14:40:27;0.87;;;0.80;;
63555;SDS011;49700;48.072;7.800;2023-08-01T14:42:53;2.00;;;1.30;;
63555;SDS011;49700;48.072;7.800;2023-08-01T14:45:19;0.80;;;0.80;;
63555;SDS011;49700;48.072;7.800;2023-08-01T14:47:44;1.27;;;0.87;;
63555;SDS011;49700;48.072;7.800;2023-08-01T14:50:11;1.67;;;1.00;;